createdAt,value
2022-11-28T00:00:57.919Z,99303.28
2022-11-28T00:02:01.742Z,99295.44
2022-11-28T00:03:04.846Z,99295.31
2022-11-28T00:04:09.139Z,99304.56
2022-11-28T00:05:12.783Z,99292.47
2022-11-28T00:06:17.065Z,99299.19
2022-11-28T00:07:20.026Z,99299.09
2022-11-28T00:08:24.363Z,99300.72
2022-11-28T00:09:27.134Z,99304.03
2022-11-28T00:10:31.004Z,99300.50
2022-11-28T00:11:36.386Z,99297.81
2022-11-28T00:12:39.130Z,99296.00
2022-11-28T00:13:43.771Z,99301.91
2022-11-28T00:14:46.416Z,99292.38
2022-11-28T00:15:57.157Z,99290.50
2022-11-28T00:17:00.950Z,99291.28
2022-11-28T00:18:03.806Z,99292.88
2022-11-28T00:19:08.245Z,99291.03
2022-11-28T00:20:11.359Z,99287.47
2022-11-28T00:21:16.228Z,99293.38
2022-11-28T00:22:18.887Z,99279.53
2022-11-28T00:23:22.577Z,99286.25
2022-11-28T00:24:26.667Z,99282.69
2022-11-28T00:25:29.337Z,99282.53
2022-11-28T00:26:36.684Z,99278.16
2022-11-28T00:27:39.413Z,99278.91
2022-11-28T00:28:43.799Z,99278.78
2022-11-28T00:29:47.511Z,99286.38
2022-11-28T00:30:50.183Z,99282.97
2022-11-28T00:31:54.023Z,99282.94
2022-11-28T00:32:56.748Z,99284.59
2022-11-28T00:34:01.914Z,99284.50
2022-11-28T00:35:05.217Z,99277.63
2022-11-28T00:36:09.514Z,99277.50
2022-11-28T00:37:13.270Z,99281.66
2022-11-28T00:38:16.078Z,99272.19
2022-11-28T00:39:20.112Z,99278.00
2022-11-28T00:40:23.367Z,99274.41
2022-11-28T00:41:28.820Z,99281.97
2022-11-28T00:42:32.948Z,99276.81
2022-11-28T00:43:37.260Z,99278.41
2022-11-28T00:44:40.070Z,99275.78
2022-11-28T00:45:43.938Z,99273.19
2022-11-28T00:46:47.658Z,99274.78
2022-11-28T00:47:50.403Z,99273.84
2022-11-28T00:48:54.530Z,99272.06
2022-11-28T00:49:57.131Z,99266.84
2022-11-28T00:51:07.946Z,99265.00
2022-11-28T00:52:11.692Z,99252.16
2022-11-28T00:53:14.478Z,99258.97
2022-11-28T00:54:18.188Z,99255.50
2022-11-28T00:55:20.798Z,99252.94
2022-11-28T00:56:26.259Z,99249.50
2022-11-28T00:57:28.909Z,99253.75
2022-11-28T00:58:34.082Z,99250.34
2022-11-28T00:59:36.841Z,99254.56
2022-11-28T01:00:40.604Z,99252.91
2022-11-28T01:01:45.375Z,99247.75
2022-11-28T01:02:48.324Z,99247.75
2022-11-28T01:03:53.070Z,99249.44
2022-11-28T01:04:55.727Z,99246.03
2022-11-28T01:05:59.561Z,99246.97
2022-11-28T01:07:02.778Z,99246.13
2022-11-28T01:08:06.577Z,99241.03
2022-11-28T01:09:13.446Z,99242.78
2022-11-28T01:10:16.311Z,99245.41
2022-11-28T01:11:20.759Z,99241.97
2022-11-28T01:12:23.408Z,99244.56
2022-11-28T01:13:27.367Z,99235.13
2022-11-28T01:14:31.468Z,99238.53
2022-11-28T01:15:35.172Z,99235.91
2022-11-28T01:16:38.481Z,99238.53
2022-11-28T01:17:42.197Z,99235.13
2022-11-28T01:18:44.859Z,99235.97
2022-11-28T01:19:48.604Z,99229.13
2022-11-28T01:20:51.281Z,99231.69
2022-11-28T01:21:55.000Z,99230.03
2022-11-28T01:22:57.658Z,99229.19
2022-11-28T01:24:01.519Z,99229.19
2022-11-28T01:25:04.780Z,99232.66
2022-11-28T01:26:10.340Z,99229.25
2022-11-28T01:27:12.939Z,99225.84
2022-11-28T01:28:16.750Z,99216.41
2022-11-28T01:29:19.347Z,99214.66
2022-11-28T01:30:24.589Z,99218.91
2022-11-28T01:31:29.382Z,99216.41
2022-11-28T01:32:33.080Z,99218.91
2022-11-28T01:33:36.095Z,99215.56
2022-11-28T01:34:39.954Z,99222.47
2022-11-28T01:35:42.840Z,99215.66
2022-11-28T01:36:46.538Z,99213.94
2022-11-28T01:37:49.225Z,99211.34
2022-11-28T01:38:53.427Z,99209.63
2022-11-28T01:39:57.218Z,99207.06
2022-11-28T01:40:59.978Z,99203.63
2022-11-28T01:42:03.729Z,99204.44
2022-11-28T01:43:06.804Z,99201.03
2022-11-28T01:44:49.059Z,99190.75
2022-11-28T01:45:54.749Z,99198.56
2022-11-28T01:46:57.498Z,99186.50
2022-11-28T01:48:03.388Z,99189.97
2022-11-28T01:49:13.750Z,99184.81
2022-11-28T01:50:17.939Z,99177.19
2022-11-28T01:51:21.209Z,99183.16
2022-11-28T01:52:25.341Z,99176.28
2022-11-28T01:53:29.961Z,99172.81
2022-11-28T01:54:34.978Z,99177.91
2022-11-28T01:55:41.521Z,99183.88
2022-11-28T01:56:51.325Z,99177.09
2022-11-28T01:57:55.849Z,99186.63
2022-11-28T01:59:01.416Z,99184.88
2022-11-28T02:00:09.388Z,99185.63
2022-11-28T02:01:20.577Z,99175.22
2022-11-28T02:02:27.581Z,99179.34
2022-11-28T02:03:36.241Z,99174.97
2022-11-28T02:04:39.075Z,99182.66
2022-11-28T02:05:42.930Z,99173.25
2022-11-28T02:06:45.827Z,99174.97
2022-11-28T02:07:50.416Z,99179.19
2022-11-28T02:08:53.887Z,99180.00
2022-11-28T02:09:58.168Z,99180.78
2022-11-28T02:11:32.616Z,99182.34
2022-11-28T02:12:46.866Z,99183.19
2022-11-28T02:13:56.518Z,99170.25
2022-11-28T02:15:13.694Z,99173.63
2022-11-28T02:16:32.737Z,99180.44
2022-11-28T02:17:45.796Z,99170.16
2022-11-28T02:18:58.957Z,99164.13
2022-11-28T02:20:26.678Z,99164.00
2022-11-28T02:21:40.341Z,99162.28
2022-11-28T02:22:46.258Z,99161.31
2022-11-28T02:24:12.788Z,99159.53
2022-11-28T02:25:55.526Z,99163.03
2022-11-28T02:27:09.818Z,99160.59
2022-11-28T02:28:46.314Z,99165.75
2022-11-28T02:30:13.223Z,99157.19
2022-11-28T02:31:37.409Z,99158.81
2022-11-28T02:33:07.624Z,99153.41
2022-11-28T02:34:13.647Z,99153.25
2022-11-28T02:35:22.069Z,99153.91
2022-11-28T02:36:29.381Z,99160.59
2022-11-28T02:37:38.018Z,99157.13
2022-11-28T02:38:56.175Z,99146.84
2022-11-28T02:40:07.091Z,99156.28
2022-11-28T02:41:18.749Z,99151.91
2022-11-28T02:42:25.704Z,99145.81
2022-11-28T02:43:33.227Z,99144.91
2022-11-28T02:44:45.359Z,99145.72
2022-11-28T02:45:54.724Z,99144.81
2022-11-28T02:47:02.504Z,99141.34
2022-11-28T02:48:10.817Z,99142.91
2022-11-28T02:49:16.340Z,99135.94
2022-11-28T02:50:24.142Z,99138.41
2022-11-28T02:51:31.379Z,99139.16
2022-11-28T02:52:37.411Z,99145.97
2022-11-28T02:53:42.468Z,99147.69
2022-11-28T02:54:47.081Z,99151.84
2022-11-28T02:55:50.404Z,99140.63
2022-11-28T02:56:55.678Z,99145.63
2022-11-28T02:57:58.326Z,99137.81
2022-11-28T02:59:02.130Z,99148.84
2022-11-28T03:00:27.203Z,99133.31
2022-11-28T03:01:33.913Z,99136.63
2022-11-28T03:02:36.816Z,99134.81
2022-11-28T03:04:00.507Z,99138.09
2022-11-28T03:05:08.626Z,99126.91
2022-11-28T03:06:20.447Z,99126.84
2022-11-28T03:07:31.646Z,99134.56
2022-11-28T03:08:43.684Z,99122.59
2022-11-28T03:09:57.029Z,99129.44
2022-11-28T03:11:05.878Z,99125.13
2022-11-28T03:12:17.509Z,99126.78
2022-11-28T03:13:24.679Z,99121.56
2022-11-28T03:14:36.964Z,99118.94
2022-11-28T03:15:46.608Z,99117.19
2022-11-28T03:16:52.238Z,99120.53
2022-11-28T03:18:04.336Z,99115.28
2022-11-28T03:19:12.760Z,99122.84
2022-11-28T03:20:21.826Z,99117.66
2022-11-28T03:21:27.636Z,99121.94
2022-11-28T03:22:37.251Z,99128.78
2022-11-28T03:23:43.783Z,99115.00
2022-11-28T03:24:50.120Z,99124.31
2022-11-28T03:25:57.817Z,99112.25
2022-11-28T03:27:06.449Z,99117.25
2022-11-28T03:28:13.018Z,99108.59
2022-11-28T03:29:20.386Z,99112.03
2022-11-28T03:30:28.927Z,99114.63
2022-11-28T03:31:36.163Z,99100.84
2022-11-28T03:32:40.057Z,99112.81
2022-11-28T03:33:48.228Z,99109.31
2022-11-28T03:34:56.838Z,99117.03
2022-11-28T03:36:04.132Z,99109.31
2022-11-28T03:37:09.729Z,99112.72
2022-11-28T03:38:18.357Z,99108.50
2022-11-28T03:39:23.858Z,99110.97
2022-11-28T03:40:30.290Z,99103.22
2022-11-28T03:41:34.919Z,99104.03
2022-11-28T03:42:42.729Z,99107.38
2022-11-28T03:43:48.170Z,99106.53
2022-11-28T03:45:00.620Z,99112.53
2022-11-28T03:46:05.887Z,99109.03
2022-11-28T03:47:10.209Z,99114.19
2022-11-28T03:48:16.138Z,99109.88
2022-11-28T03:49:22.990Z,99110.75
2022-11-28T03:50:30.369Z,99110.75
2022-11-28T03:51:35.754Z,99107.25
2022-11-28T03:52:42.078Z,99108.94
2022-11-28T03:53:50.826Z,99103.78
2022-11-28T03:54:58.291Z,99103.66
2022-11-28T03:56:04.777Z,99104.50
2022-11-28T03:57:13.029Z,99103.50
2022-11-28T03:58:23.520Z,99098.34
2022-11-28T03:59:30.517Z,99100.84
2022-11-28T04:00:34.556Z,99102.53
2022-11-28T04:01:45.527Z,99098.22
2022-11-28T04:02:55.598Z,99097.41
2022-11-28T04:04:09.250Z,99098.16
2022-11-28T04:05:19.512Z,99101.56
2022-11-28T04:06:27.288Z,99100.66
2022-11-28T04:07:35.233Z,99095.50
2022-11-28T04:08:42.897Z,99100.59
2022-11-28T04:09:48.399Z,99108.34
2022-11-28T04:10:56.318Z,99104.94
2022-11-28T04:12:04.218Z,99100.66
2022-11-28T04:13:13.658Z,99102.41
2022-11-28T04:14:20.859Z,99104.13
2022-11-28T04:15:31.015Z,99097.25
2022-11-28T04:16:36.992Z,99108.38
2022-11-28T04:17:47.346Z,99100.59
2022-11-28T04:18:53.117Z,99101.44
2022-11-28T04:20:02.699Z,99104.00
2022-11-28T04:21:11.007Z,99096.28
2022-11-28T04:22:19.708Z,99093.72
2022-11-28T04:23:22.657Z,99091.19
2022-11-28T04:24:28.896Z,99092.91
2022-11-28T04:25:34.891Z,99096.41
2022-11-28T04:26:42.648Z,99086.94
2022-11-28T04:27:49.476Z,99086.94
2022-11-28T04:28:54.523Z,99089.50
2022-11-28T04:29:59.540Z,99087.78
2022-11-28T04:31:04.500Z,99095.50
2022-11-28T04:32:08.888Z,99093.75
2022-11-28T04:33:13.358Z,99084.31
2022-11-28T04:34:19.307Z,99087.66
2022-11-28T04:35:27.654Z,99088.47
2022-11-28T04:36:30.926Z,99085.00
2022-11-28T04:37:38.692Z,99081.50
2022-11-28T04:38:41.820Z,99084.94
2022-11-28T04:39:48.599Z,99090.09
2022-11-28T04:40:54.697Z,99080.53
2022-11-28T04:42:01.690Z,99086.63
2022-11-28T04:43:07.086Z,99076.31
2022-11-28T04:44:13.858Z,99074.56
2022-11-28T04:45:19.561Z,99078.88
2022-11-28T04:46:27.705Z,99077.97
2022-11-28T04:47:31.536Z,99076.31
2022-11-28T04:48:34.717Z,99072.81
2022-11-28T04:49:39.109Z,99078.72
2022-11-28T04:50:54.695Z,99073.56
2022-11-28T04:52:04.644Z,99079.63
2022-11-28T04:53:12.828Z,99083.88
2022-11-28T04:54:19.369Z,99087.28
2022-11-28T04:55:30.567Z,99079.50
2022-11-28T04:56:38.801Z,99085.50
2022-11-28T04:57:44.589Z,99088.91
2022-11-28T04:58:49.000Z,99088.00
2022-11-28T04:59:53.298Z,99093.16
2022-11-28T05:00:56.642Z,99092.25
2022-11-28T05:02:04.807Z,99088.75
2022-11-28T05:03:08.558Z,99093.91
2022-11-28T05:04:12.650Z,99084.47
2022-11-28T05:05:18.757Z,99093.03
2022-11-28T05:06:29.479Z,99085.22
2022-11-28T05:07:33.221Z,99086.06
2022-11-28T05:08:38.540Z,99080.91
2022-11-28T05:09:41.260Z,99084.31
2022-11-28T05:10:44.951Z,99084.31
2022-11-28T05:11:47.630Z,99085.97
2022-11-28T05:12:51.339Z,99080.78
2022-11-28T05:13:54.299Z,99082.50
2022-11-28T05:14:58.000Z,99087.59
2022-11-28T05:16:00.975Z,99088.50
2022-11-28T05:17:04.721Z,99091.84
2022-11-28T05:18:07.409Z,99083.19
2022-11-28T05:19:11.404Z,99085.78
2022-11-28T05:20:14.622Z,99078.03
2022-11-28T05:21:18.280Z,99087.44
2022-11-28T05:22:20.917Z,99078.00
2022-11-28T05:23:24.722Z,99077.06
2022-11-28T05:24:40.378Z,99076.25
2022-11-28T05:25:44.118Z,99075.34
2022-11-28T05:26:46.779Z,99086.41
2022-11-28T05:27:50.643Z,99086.41
2022-11-28T05:28:53.840Z,99082.06
2022-11-28T05:29:57.539Z,99086.34
2022-11-28T05:31:00.796Z,99088.94
2022-11-28T05:32:04.857Z,99092.34
2022-11-28T05:33:07.598Z,99091.44
2022-11-28T05:34:11.296Z,99092.25
2022-11-28T05:35:14.149Z,99091.34
2022-11-28T05:36:18.887Z,99087.03
2022-11-28T05:37:21.479Z,99089.59
2022-11-28T05:38:25.238Z,99089.59
2022-11-28T05:39:29.429Z,99095.59
2022-11-28T05:40:33.180Z,99089.59
2022-11-28T05:41:36.220Z,99086.19
2022-11-28T05:42:39.986Z,99083.63
2022-11-28T05:43:42.699Z,99094.75
2022-11-28T05:44:46.320Z,99090.44
2022-11-28T05:45:50.054Z,99085.28
2022-11-28T05:46:53.148Z,99088.69
2022-11-28T05:47:56.891Z,99083.53
2022-11-28T05:48:59.619Z,99083.53
2022-11-28T05:50:03.290Z,99085.22
2022-11-28T05:51:06.630Z,99086.97
2022-11-28T05:52:10.520Z,99087.81
2022-11-28T05:53:13.592Z,99092.13
2022-11-28T05:54:17.357Z,99092.97
2022-11-28T05:55:21.417Z,99092.13
2022-11-28T05:56:25.239Z,99092.13
2022-11-28T05:57:30.173Z,99090.38
2022-11-28T05:58:33.906Z,99085.22
2022-11-28T05:59:36.721Z,99083.53
2022-11-28T06:00:40.996Z,99084.44
2022-11-28T06:01:43.857Z,99082.78
2022-11-28T06:02:47.647Z,99077.63
2022-11-28T06:03:50.393Z,99076.78
2022-11-28T06:04:54.256Z,99080.28
2022-11-28T06:05:56.988Z,99082.84
2022-11-28T06:07:00.677Z,99090.59
2022-11-28T06:08:03.379Z,99083.69
2022-11-28T06:09:07.484Z,99084.53
2022-11-28T06:10:10.647Z,99087.94
2022-11-28T06:11:16.372Z,99087.94
2022-11-28T06:12:20.068Z,99087.03
2022-11-28T06:13:22.717Z,99081.03
2022-11-28T06:14:26.392Z,99084.44
2022-11-28T06:15:32.649Z,99091.34
2022-11-28T06:16:39.280Z,99086.19
2022-11-28T06:17:42.281Z,99086.19
2022-11-28T06:18:46.285Z,99081.88
2022-11-28T06:19:49.076Z,99082.69
2022-11-28T06:20:52.907Z,99086.09
2022-11-28T06:21:57.176Z,99085.22
2022-11-28T06:22:59.818Z,99083.47
2022-11-28T06:24:03.489Z,99083.53
2022-11-28T06:25:06.568Z,99082.69
2022-11-28T06:26:12.738Z,99087.03
2022-11-28T06:27:16.829Z,99081.13
2022-11-28T06:28:20.538Z,99073.47
2022-11-28T06:29:24.207Z,99082.16
2022-11-28T06:30:27.980Z,99078.88
2022-11-28T06:31:31.973Z,99087.50
2022-11-28T06:32:34.730Z,99083.28
2022-11-28T06:33:38.737Z,99083.34
2022-11-28T06:34:42.382Z,99090.16
2022-11-28T06:35:45.118Z,99083.28
2022-11-28T06:36:48.818Z,99088.34
2022-11-28T06:37:51.518Z,99090.91
2022-11-28T06:38:55.339Z,99090.88
2022-11-28T06:39:59.337Z,99088.22
2022-11-28T06:41:03.203Z,99084.72
2022-11-28T06:42:07.400Z,99082.91
2022-11-28T06:43:11.400Z,99072.53
2022-11-28T06:44:16.054Z,99087.03
2022-11-28T06:45:19.190Z,99078.38
2022-11-28T06:46:23.331Z,99083.47
2022-11-28T06:47:26.017Z,99086.81
2022-11-28T06:48:29.987Z,99077.34
2022-11-28T06:49:32.739Z,99082.44
2022-11-28T06:50:36.570Z,99082.44
2022-11-28T06:51:39.346Z,99079.78
2022-11-28T06:52:43.058Z,99085.78
2022-11-28T06:53:45.736Z,99082.28
2022-11-28T06:54:49.441Z,99080.53
2022-11-28T06:55:52.090Z,99083.13
2022-11-28T06:56:55.828Z,99074.47
2022-11-28T06:57:58.509Z,99080.47
2022-11-28T06:59:03.711Z,99076.09
2022-11-28T07:00:07.888Z,99076.91
2022-11-28T07:01:13.507Z,99078.59
2022-11-28T07:02:16.266Z,99082.00
2022-11-28T07:03:20.088Z,99081.94
2022-11-28T07:04:23.839Z,99076.78
2022-11-28T07:05:27.972Z,99081.03
2022-11-28T07:06:31.790Z,99078.44
2022-11-28T07:07:45.651Z,99072.38
2022-11-28T07:08:57.930Z,99065.47
2022-11-28T07:10:00.672Z,99068.88
2022-11-28T07:11:12.467Z,99070.56
2022-11-28T07:12:15.226Z,99075.66
2022-11-28T07:13:18.892Z,99068.75
2022-11-28T07:14:24.266Z,99076.41
2022-11-28T07:15:27.217Z,99064.34
2022-11-28T07:16:32.925Z,99070.34
2022-11-28T07:17:36.912Z,99062.56
2022-11-28T07:18:40.578Z,99073.69
2022-11-28T07:19:44.530Z,99071.03
2022-11-28T07:20:48.027Z,99066.72
2022-11-28T07:21:52.151Z,99067.47
2022-11-28T07:22:55.842Z,99069.09
2022-11-28T07:23:59.947Z,99060.44
2022-11-28T07:25:02.609Z,99058.63
2022-11-28T07:26:07.169Z,99057.72
2022-11-28T07:27:10.838Z,99067.94
2022-11-28T07:28:13.650Z,99061.88
2022-11-28T07:29:19.605Z,99061.81
2022-11-28T07:30:23.720Z,99060.09
2022-11-28T07:31:32.429Z,99059.09
2022-11-28T07:32:36.539Z,99062.50
2022-11-28T07:33:39.768Z,99059.84
2022-11-28T07:34:46.656Z,99061.53
2022-11-28T07:35:52.567Z,99057.19
2022-11-28T07:36:56.316Z,99056.19
2022-11-28T07:37:59.007Z,99069.06
2022-11-28T07:39:04.898Z,99059.56
2022-11-28T07:40:08.609Z,99060.31
2022-11-28T07:41:14.489Z,99059.25
2022-11-28T07:42:17.760Z,99063.41
2022-11-28T07:43:33.823Z,99062.44
2022-11-28T07:44:37.699Z,99054.63
2022-11-28T07:46:00.015Z,99055.31
2022-11-28T07:47:05.062Z,99055.31
2022-11-28T07:48:07.998Z,99055.16
2022-11-28T07:49:12.290Z,99057.72
2022-11-28T07:50:14.944Z,99061.00
2022-11-28T07:51:20.471Z,99060.88
2022-11-28T07:52:24.232Z,99061.63
2022-11-28T07:53:27.141Z,99068.31
2022-11-28T07:54:30.951Z,99062.97
2022-11-28T07:55:35.823Z,99065.31
2022-11-28T07:57:10.718Z,99058.34
2022-11-28T07:58:04.798Z,99058.28
2022-11-28T07:59:07.980Z,99059.78
2022-11-28T08:00:12.746Z,99058.78
2022-11-28T08:01:20.228Z,99065.56
2022-11-28T08:02:22.951Z,99060.41
2022-11-28T08:03:26.719Z,99055.22
2022-11-28T08:04:29.521Z,99061.38
2022-11-28T08:05:33.467Z,99064.13
2022-11-28T08:06:39.430Z,99060.75
2022-11-28T08:07:42.184Z,99061.69
2022-11-28T08:08:47.313Z,99057.44
2022-11-28T08:09:51.080Z,99059.09
2022-11-28T08:10:58.179Z,99060.75
2022-11-28T08:12:01.888Z,99053.84
2022-11-28T08:13:04.725Z,99059.78
2022-11-28T08:14:08.649Z,99054.47
2022-11-28T08:15:11.976Z,99055.97
2022-11-28T08:16:18.439Z,99062.75
2022-11-28T08:17:21.299Z,99055.66
2022-11-28T08:18:25.266Z,99055.50
2022-11-28T08:19:33.705Z,99056.13
2022-11-28T08:20:39.040Z,99058.47
2022-11-28T08:21:42.779Z,99051.41
2022-11-28T08:22:45.459Z,99057.22
2022-11-28T08:23:49.237Z,99048.41
2022-11-28T08:24:52.918Z,99061.09
2022-11-28T08:25:56.010Z,99048.84
2022-11-28T08:26:59.760Z,99054.63
2022-11-28T08:28:02.549Z,99049.22
2022-11-28T08:29:06.604Z,99049.88
2022-11-28T08:30:10.601Z,99044.59
2022-11-28T08:31:15.911Z,99047.19
2022-11-28T08:32:20.601Z,99043.72
2022-11-28T08:33:24.782Z,99042.88
2022-11-28T08:34:28.557Z,99041.88
2022-11-28T08:35:32.278Z,99040.03
2022-11-28T08:36:36.156Z,99042.56
2022-11-28T08:37:40.349Z,99042.47
2022-11-28T08:38:57.823Z,99038.97
2022-11-28T08:40:10.718Z,99043.16
2022-11-28T08:41:16.289Z,99043.06
2022-11-28T08:42:20.028Z,99042.97
2022-11-28T08:43:23.748Z,99041.06
2022-11-28T08:44:30.290Z,99037.50
2022-11-28T08:45:33.368Z,99048.47
2022-11-28T08:46:37.207Z,99041.50
2022-11-28T08:47:41.299Z,99052.47
2022-11-28T08:48:45.581Z,99048.06
2022-11-28T08:49:49.308Z,99051.41
2022-11-28T08:50:52.180Z,99044.38
2022-11-28T08:51:55.900Z,99048.47
2022-11-28T08:53:01.897Z,99042.38
2022-11-28T08:54:11.242Z,99042.31
2022-11-28T08:55:14.924Z,99045.56
2022-11-28T08:56:17.630Z,99045.50
2022-11-28T08:57:21.408Z,99046.31
2022-11-28T08:58:24.257Z,99046.13
2022-11-28T08:59:28.205Z,99040.91
2022-11-28T09:00:32.125Z,99046.81
2022-11-28T09:01:35.973Z,99036.38
2022-11-28T09:02:39.750Z,99045.00
2022-11-28T09:03:43.958Z,99041.38
2022-11-28T09:04:47.789Z,99030.09
2022-11-28T09:05:51.898Z,99036.13
2022-11-28T09:06:55.689Z,99035.28
2022-11-28T09:07:58.836Z,99038.63
2022-11-28T09:09:03.201Z,99032.44
2022-11-28T09:10:08.708Z,99039.28
2022-11-28T09:11:13.229Z,99034.19
2022-11-28T09:12:16.999Z,99038.53
2022-11-28T09:13:20.839Z,99036.78
2022-11-28T09:14:24.579Z,99031.63
2022-11-28T09:15:27.991Z,99030.78
2022-11-28T09:16:31.694Z,99029.84
2022-11-28T09:17:34.516Z,99026.44
2022-11-28T09:18:38.274Z,99020.34
2022-11-28T09:19:44.035Z,99017.00
2022-11-28T09:20:46.998Z,99018.69
2022-11-28T09:21:56.165Z,99020.34
2022-11-28T09:23:01.507Z,99016.09
2022-11-28T09:24:06.656Z,99020.34
2022-11-28T09:25:09.784Z,99016.00
2022-11-28T09:26:15.123Z,99016.75
2022-11-28T09:27:19.531Z,99016.75
2022-11-28T09:28:23.571Z,99008.91
2022-11-28T09:29:28.523Z,99005.41
2022-11-28T09:30:31.295Z,99007.88
2022-11-28T09:31:35.198Z,99007.88
2022-11-28T09:32:37.999Z,99000.06
2022-11-28T09:33:42.179Z,98999.22
2022-11-28T09:34:47.878Z,98997.38
2022-11-28T09:35:50.754Z,99001.56
2022-11-28T09:36:54.587Z,99004.16
2022-11-28T09:37:58.291Z,98994.53
2022-11-28T09:39:02.671Z,98996.09
2022-11-28T09:40:15.188Z,98996.03
2022-11-28T09:41:55.781Z,98991.59
2022-11-28T09:43:01.218Z,98995.09
2022-11-28T09:44:10.648Z,98996.59
2022-11-28T09:45:17.217Z,98992.97
2022-11-28T09:46:26.281Z,98997.16
2022-11-28T09:47:31.339Z,98998.66
2022-11-28T09:48:38.247Z,98992.47
2022-11-28T09:49:47.384Z,98989.59
2022-11-28T09:50:55.909Z,98997.94
2022-11-28T09:52:02.159Z,98990.75
2022-11-28T09:53:16.697Z,98997.22
2022-11-28T09:54:23.329Z,98992.69
2022-11-28T09:55:33.806Z,98991.50
2022-11-28T09:56:36.661Z,98983.56
2022-11-28T09:57:42.734Z,98982.44
2022-11-28T09:58:49.311Z,98976.25
2022-11-28T09:59:53.048Z,98977.91
2022-11-28T10:01:02.187Z,98974.22
2022-11-28T10:02:18.258Z,98963.56
2022-11-28T10:03:36.003Z,98973.00
2022-11-28T10:04:43.580Z,98972.09
2022-11-28T10:05:54.617Z,98966.72
2022-11-28T10:07:06.882Z,98974.28
2022-11-28T10:08:23.976Z,98969.75
2022-11-28T10:09:35.246Z,98973.28
2022-11-28T10:10:44.410Z,98975.69
2022-11-28T10:11:56.516Z,98971.16
2022-11-28T10:13:04.966Z,98976.16
2022-11-28T10:14:27.016Z,98976.06
2022-11-28T10:15:41.958Z,98977.66
2022-11-28T10:16:53.405Z,98977.38
2022-11-28T10:18:06.284Z,98971.06
2022-11-28T10:19:31.532Z,98975.03
2022-11-28T10:20:39.800Z,98973.94
2022-11-28T10:21:47.716Z,98963.38
2022-11-28T10:22:53.486Z,98973.75
2022-11-28T10:24:00.105Z,98960.78
2022-11-28T10:25:07.549Z,98959.88
2022-11-28T10:26:18.144Z,98959.75
2022-11-28T10:27:26.781Z,98953.56
2022-11-28T10:28:33.860Z,98957.06
2022-11-28T10:29:47.061Z,98955.59
2022-11-28T10:30:56.338Z,98956.63
2022-11-28T10:32:03.099Z,98957.66
2022-11-28T10:33:12.749Z,98955.97
2022-11-28T10:34:18.799Z,98954.31
2022-11-28T10:35:28.684Z,98949.88
2022-11-28T10:36:36.164Z,98953.19
2022-11-28T10:37:42.146Z,98953.00
2022-11-28T10:38:45.817Z,98955.50
2022-11-28T10:39:49.216Z,98950.13
2022-11-28T10:41:00.075Z,98948.16
2022-11-28T10:42:14.045Z,98947.16
2022-11-28T10:43:29.096Z,98948.53
2022-11-28T10:44:38.272Z,98939.81
2022-11-28T10:45:48.446Z,98946.59
2022-11-28T10:46:59.019Z,98936.94
2022-11-28T10:49:52.249Z,98934.97
2022-11-28T10:51:01.960Z,98937.47
2022-11-28T10:52:12.091Z,98927.19
2022-11-28T10:53:26.376Z,98936.72
2022-11-28T10:54:47.224Z,98932.38
2022-11-28T10:56:00.639Z,98935.59
2022-11-28T10:57:07.779Z,98933.94
2022-11-28T10:58:15.589Z,98928.66
2022-11-28T10:59:28.910Z,98931.16
2022-11-28T11:00:33.027Z,98925.97
2022-11-28T11:01:39.385Z,98932.06
2022-11-28T11:02:45.099Z,98927.63
2022-11-28T11:03:50.061Z,98924.81
2022-11-28T11:04:54.324Z,98921.22
2022-11-28T11:05:58.145Z,98919.34
2022-11-28T11:07:20.209Z,98922.69
2022-11-28T11:08:29.581Z,98921.75
2022-11-28T11:09:32.259Z,98921.47
2022-11-28T11:10:39.180Z,98920.34
2022-11-28T11:11:48.601Z,98917.63
2022-11-28T11:12:52.589Z,98917.75
2022-11-28T11:14:01.703Z,98913.47
2022-11-28T11:15:18.021Z,98913.56
2022-11-28T11:16:20.781Z,98918.97
2022-11-28T11:17:34.355Z,98919.06
2022-11-28T11:18:53.470Z,98913.97
2022-11-28T11:19:56.918Z,98909.72
2022-11-28T11:21:12.054Z,98908.06
2022-11-28T11:22:20.355Z,98913.31
2022-11-28T11:23:24.855Z,98910.66
2022-11-28T11:24:30.205Z,98905.47
2022-11-28T11:25:34.204Z,98913.13
2022-11-28T11:26:42.136Z,98915.63
2022-11-28T11:27:50.951Z,98915.44
2022-11-28T11:28:54.893Z,98906.72
2022-11-28T11:29:57.708Z,98915.44
2022-11-28T11:31:02.321Z,98916.28
2022-11-28T11:32:07.453Z,98909.19
2022-11-28T11:33:17.583Z,98907.34
2022-11-28T11:34:23.149Z,98908.91
2022-11-28T11:35:28.322Z,98910.38
2022-11-28T11:36:32.597Z,98902.38
2022-11-28T11:37:38.506Z,98907.38
2022-11-28T11:38:42.405Z,98912.47
2022-11-28T11:39:50.610Z,98903.66
2022-11-28T11:40:54.377Z,98904.38
2022-11-28T11:42:12.750Z,98908.53
2022-11-28T11:43:28.462Z,98903.53
2022-11-28T11:44:35.485Z,98905.31
2022-11-28T11:45:39.718Z,98905.41
2022-11-28T11:46:52.557Z,98904.66
2022-11-28T11:47:56.721Z,98908.09
2022-11-28T11:48:59.634Z,98902.00
2022-11-28T11:50:06.214Z,98905.41
2022-11-28T11:51:23.249Z,98910.69
2022-11-28T11:52:27.819Z,98905.59
2022-11-28T11:53:31.621Z,98908.19
2022-11-28T11:54:35.385Z,98909.84
2022-11-28T11:55:46.250Z,98904.66
2022-11-28T11:57:00.738Z,98909.97
2022-11-28T11:58:17.927Z,98911.00
2022-11-28T11:59:24.700Z,98909.34
2022-11-28T12:00:32.092Z,98904.88
2022-11-28T12:01:36.923Z,98902.28
2022-11-28T12:02:45.771Z,98902.19
2022-11-28T12:03:54.950Z,98904.78
2022-11-28T12:05:04.147Z,98897.00
2022-11-28T12:06:14.965Z,98904.66
2022-11-28T12:07:26.775Z,98902.91
2022-11-28T12:08:35.282Z,98907.25
2022-11-28T12:09:43.875Z,98903.84
2022-11-28T12:10:53.059Z,98903.75
2022-11-28T12:12:01.029Z,98900.31
2022-11-28T12:13:05.133Z,98899.47
2022-11-28T12:14:32.999Z,98900.22
2022-11-28T12:15:48.113Z,98904.47
2022-11-28T12:16:55.791Z,98902.72
2022-11-28T12:18:09.678Z,98901.78
2022-11-28T12:19:22.816Z,98902.53
2022-11-28T12:20:35.299Z,98903.25
2022-11-28T12:21:42.707Z,98898.75
2022-11-28T12:22:50.710Z,98897.75
2022-11-28T12:24:03.624Z,98900.16
2022-11-28T12:25:13.618Z,98894.75
2022-11-28T12:26:22.420Z,98899.09
2022-11-28T12:27:33.038Z,98892.03
2022-11-28T12:28:47.341Z,98895.38
2022-11-28T12:29:56.118Z,98897.75
2022-11-28T12:31:05.326Z,98897.66
2022-11-28T12:32:23.918Z,98898.50
2022-11-28T12:33:41.451Z,98893.72
2022-11-28T12:34:55.837Z,98892.47
2022-11-28T12:36:12.358Z,98902.44
2022-11-28T12:37:33.096Z,98896.09
2022-11-28T12:39:01.808Z,98899.44
2022-11-28T12:40:15.140Z,98895.91
2022-11-28T12:41:32.749Z,98894.31
2022-11-28T12:42:47.368Z,98893.38
2022-11-28T12:43:58.499Z,98892.38
2022-11-28T12:45:19.978Z,98891.41
2022-11-28T12:46:30.102Z,98887.81
2022-11-28T12:47:41.066Z,98889.44
2022-11-28T12:48:54.763Z,98893.59
2022-11-28T12:50:01.287Z,98888.41
2022-11-28T12:51:13.860Z,98885.81
2022-11-28T12:52:24.209Z,98881.53
2022-11-28T12:53:41.002Z,98885.81
2022-11-28T12:55:02.433Z,98885.59
2022-11-28T12:56:23.129Z,98881.94
2022-11-28T12:57:34.494Z,98885.47
2022-11-28T12:58:42.033Z,98880.28
2022-11-28T12:59:49.721Z,98879.47
2022-11-28T13:01:00.562Z,98880.22
2022-11-28T13:02:20.470Z,98876.66
2022-11-28T13:03:35.968Z,98871.47
2022-11-28T13:05:04.047Z,98873.31
2022-11-28T13:06:16.674Z,98873.56
2022-11-28T13:07:27.427Z,98878.00
2022-11-28T13:08:58.172Z,98872.09